Terminal Aerodrome Forecast
Issued by NWS Kansas City/Pleasant Hill, MO

Home | Current Version | Previous Version | Text Only | Print | Product List | Glossary On
Versions: 1 2 3 4 5 6 7 8 9 10 11 12 13 14 15 16 17
769
FTUS43 KEAX 251730
TAFMCI
TAF
KMCI 251730Z 2518/2618 16012KT P6SM FEW140
     FM260100 15008KT P6SM SCT250
     FM260600 13006KT P6SM BKN100
     FM261400 VRB05KT P6SM SCT035=

USA.gov is the U.S. government's official web portal to all federal, state and local government web resources and services.